CST,Max TemperatureF,Mean TemperatureF,Min TemperatureF,Max Dew PointF,MeanDew PointF,Min DewpointF,Max Humidity, Mean Humidity, Min Humidity, Max Sea Level PressureIn, Mean Sea Level PressureIn, Min Sea Level PressureIn, Max VisibilityMiles, Mean VisibilityMiles, Min VisibilityMiles, Max Wind SpeedMPH, Mean Wind SpeedMPH, Max Gust SpeedMPH,PrecipitationIn, CloudCover, Events, WindDirDegrees
2012-11-1,81,64,46,43,34,28,70,32,11,30.26,30.02,29.73,19,13,6,12,3,,0.00,3,,190
2012-11-2,81,63,45,43,33,21,87,35,7,30.24,30.00,29.71,19,12,6,12,3,,0.00,0,,169
2012-11-3,78,61,44,43,38,30,76,43,17,30.25,30.00,29.77,19,12,6,14,3,,0.00,4,,156
2012-11-4,80,64,48,54,42,36,76,44,26,30.25,30.03,29.81,19,12,6,12,3,,0.00,7,,32
2012-11-5,80,64,48,47,41,34,76,44,22,30.34,30.08,29.84,16,11,6,12,4,,0.00,3,,36
2012-11-6,79,62,44,43,35,30,76,38,17,30.39,30.16,29.90,19,12,6,12,3,,0.00,3,,27
2012-11-7,79,61,43,41,35,28,81,34,13,30.36,30.12,29.86,16,12,6,12,2,,0.00,3,,233
2012-11-8,81,62,42,44,37,28,87,36,15,30.32,30.07,29.76,19,13,6,12,3,,0.00,2,,181
2012-11-9,83,64,47,47,39,21,81,39,12,30.26,30.02,29.70,19,12,6,8,3,,0.00,0,,157
2012-11-10,85,70,55,53,44,32,82,45,16,30.24,29.96,29.65,19,12,6,13,4,,0.00,4,,197
2012-11-11,86,70,53,48,42,32,82,40,13,30.22,29.96,29.67,19,12,6,13,3,,0.00,0,,216
2012-11-12,79,61,43,50,39,30,93,41,19,30.39,30.12,29.84,19,12,6,9,4,,0.00,3,,6
2012-11-13,80,64,48,46,42,37,76,41,14,30.33,30.07,29.76,19,11,6,18,2,,0.00,6,,226
2012-11-14,82,66,51,46,43,41,82,41,16,30.37,30.08,29.82,19,11,6,7,2,,0.00,5,,103
2012-11-15,81,65,49,49,42,37,76,42,18,30.36,30.10,29.82,19,11,6,7,2,,0.00,5,,301
2012-11-16,82,67,52,54,44,37,71,46,16,30.34,30.10,29.79,19,12,6,10,2,,0.00,6,,59
2012-11-17,83,64,46,50,44,36,87,48,16,30.36,30.10,29.83,19,12,6,6,1,,0.00,4,,216
2012-11-18,84,65,46,51,42,36,87,47,16,30.35,30.11,29.85,19,12,6,17,4,,0.00,4,,215
2012-11-19,82,62,41,39,34,28,75,36,13,30.38,30.12,29.83,19,12,6,9,2,,0.00,2,,69
2012-11-20,77,63,49,46,43,36,76,44,24,30.37,30.10,29.83,19,12,6,12,1,,0.00,7,,52
2012-11-21,82,64,47,49,44,39,82,51,21,30.34,30.10,29.84,19,11,6,9,3,,0.00,3,,49
2012-11-22,78,60,45,46,39,30,87,49,19,30.35,30.15,29.93,19,11,6,12,2,,0.00,5,,357
2012-11-23,77,62,46,50,44,39,93,67,22,30.40,30.21,29.97,19,10,4,14,4,,0.04,7,Rain-Thunderstorm,348
2012-11-24,69,55,41,48,44,39,93,70,39,30.43,30.21,29.86,14,9,6,9,2,,0.00,5,Rain,350
2012-11-25,77,59,41,49,42,37,100,66,30,30.32,30.10,29.82,19,9,0,8,1,,0.00,2,Fog,119
2012-11-26,69,56,44,53,44,37,93,69,43,30.34,30.14,29.90,19,11,6,9,2,,0.00,3,Rain-Thunderstorm,26
2012-11-27,72,56,41,45,39,25,93,61,18,30.45,30.25,29.93,19,12,6,9,4,,0.00,5,,8
2012-11-28,76,58,39,45,40,36,93,52,27,30.47,30.23,29.93,19,11,6,9,2,,0.00,3,,147
2012-11-29,77,60,42,44,32,19,93,41,13,30.38,30.16,29.88,19,12,6,6,2,,0.00,3,,329
2012-11-30,77,58,39,44,37,28,87,46,19,30.38,30.17,29.88,19,13,6,6,2,,0.00,1,,13